createdAt,value
2022-12-17T00:05:20.432Z,934.6
2022-12-17T00:25:13.435Z,934.8
2022-12-17T00:56:33.510Z,934.8
2022-12-17T01:10:17.280Z,934.8
2022-12-17T01:15:52.487Z,935.3
2022-12-17T01:35:51.603Z,935.9
2022-12-17T01:41:13.556Z,935.9
2022-12-17T01:54:34.034Z,935.9
2022-12-17T02:01:11.382Z,935.4
2022-12-17T02:06:20.231Z,935.4
2022-12-17T02:11:55.241Z,935.2
2022-12-17T02:22:43.652Z,935.2
2022-12-17T02:27:59.903Z,935.2
2022-12-17T02:38:37.611Z,935.2
2022-12-17T02:44:28.241Z,935.2
2022-12-17T02:49:49.816Z,935.2
2022-12-17T02:55:29.974Z,936.1
2022-12-17T03:02:14.612Z,936.2
2022-12-17T03:07:21.273Z,935.9
2022-12-17T03:12:35.757Z,936.1
2022-12-17T03:19:27.072Z,935.8
2022-12-17T03:24:49.574Z,935.8
2022-12-17T03:35:34.718Z,936
2022-12-17T03:42:31.907Z,936.1
2022-12-17T03:52:56.421Z,936.3
2022-12-17T03:58:47.795Z,936.7
2022-12-17T04:20:36.774Z,936.7
2022-12-17T04:36:30.446Z,937.1
2022-12-17T04:52:37.877Z,936.8
2022-12-17T04:57:51.986Z,936.8
2022-12-17T05:08:25.801Z,936.6
2022-12-17T05:13:42.674Z,936.6
2022-12-17T05:24:19.763Z,936.7
2022-12-17T05:35:02.165Z,936.9
2022-12-17T05:40:21.819Z,936.9
2022-12-17T05:45:35.469Z,936.9
2022-12-17T05:50:54.802Z,936.6
2022-12-17T05:56:14.090Z,936.6
2022-12-17T06:06:46.142Z,936.5
2022-12-17T06:12:03.519Z,936.6
2022-12-17T06:22:28.932Z,936.7
2022-12-17T06:27:43.316Z,936.7
2022-12-17T06:32:55.196Z,936.9
2022-12-17T06:43:29.206Z,937
2022-12-17T06:48:41.084Z,936.8
2022-12-17T06:53:56.668Z,936.8
2022-12-17T06:59:06.870Z,937.2
2022-12-17T07:04:22.981Z,937.2
2022-12-17T07:14:57.039Z,937.1
2022-12-17T07:30:58.092Z,937.3
2022-12-17T07:52:30.081Z,937.4
2022-12-17T08:03:01.221Z,937.2
2022-12-17T08:19:04.027Z,937
2022-12-17T08:35:03.629Z,937.2
2022-12-17T08:40:13.409Z,937.4
2022-12-17T08:45:24.633Z,937.8
2022-12-17T08:56:07.184Z,937.4
2022-12-17T09:01:20.184Z,937.4
2022-12-17T09:06:39.724Z,937.2
2022-12-17T09:11:39.774Z,937.4
2022-12-17T09:16:55.382Z,937.4
2022-12-17T09:22:06.583Z,937.8
2022-12-17T09:32:43.805Z,937.8
2022-12-17T09:37:55.485Z,938.1
2022-12-17T09:43:08.128Z,938.4
2022-12-17T09:48:18.018Z,938.2
2022-12-17T09:58:52.013Z,937.9
2022-12-17T10:04:14.199Z,937.5
2022-12-17T10:09:21.501Z,937.2
2022-12-17T10:14:37.895Z,937.2
2022-12-17T10:19:54.142Z,937.2
2022-12-17T10:30:27.042Z,937.2
2022-12-17T10:51:43.854Z,937.1
2022-12-17T10:56:55.362Z,937.3
2022-12-17T11:02:07.269Z,937.1
2022-12-17T11:07:21.342Z,937
2022-12-17T11:12:33.525Z,937
2022-12-17T11:17:44.763Z,936.7
2022-12-17T11:23:05.716Z,936.7
2022-12-17T11:28:18.580Z,936.8
2022-12-17T11:38:52.588Z,936.8
2022-12-17T11:44:05.053Z,936.8
2022-12-17T11:49:16.735Z,936.8
2022-12-17T11:54:29.848Z,936.8
2022-12-17T12:00:04.761Z,936.7
2022-12-17T12:04:55.280Z,936.8
2022-12-17T12:10:08.955Z,936.9
2022-12-17T12:15:18.006Z,936.9
2022-12-17T12:20:31.794Z,937
2022-12-17T12:25:44.176Z,937
2022-12-17T12:30:53.759Z,936.9
2022-12-17T12:36:01.803Z,937
2022-12-17T12:41:20.426Z,937
2022-12-17T12:46:34.147Z,937.1
2022-12-17T12:51:51.585Z,937.1
2022-12-17T13:02:22.984Z,937.2
2022-12-17T13:07:30.572Z,937.1
2022-12-17T13:12:39.062Z,937.1
2022-12-17T13:17:47.202Z,937.2
2022-12-17T13:22:58.704Z,937.2
2022-12-17T13:28:08.502Z,937.3
2022-12-17T13:33:24.606Z,937.3
2022-12-17T13:38:41.918Z,937.3
2022-12-17T13:49:11.254Z,937.3
2022-12-17T14:10:26.707Z,937.6
2022-12-17T14:21:00.112Z,937.7
2022-12-17T14:36:54.810Z,937.9
2022-12-17T14:42:15.198Z,937.9
2022-12-17T14:47:44.615Z,937.9
2022-12-17T14:52:58.274Z,937.9
2022-12-17T14:58:08.707Z,937.9
2022-12-17T15:03:19.742Z,938.1
2022-12-17T15:08:37.059Z,938.2
2022-12-17T15:19:06.450Z,938.2
2022-12-17T15:24:22.655Z,938.2
2022-12-17T15:29:34.833Z,938.2
2022-12-17T15:45:27.932Z,938.4
2022-12-17T16:01:22.947Z,938.6
2022-12-17T16:11:58.021Z,938.6
2022-12-17T16:17:13.200Z,938.6
2022-12-17T16:22:24.947Z,938.6
2022-12-17T16:27:36.719Z,938.4
2022-12-17T16:32:46.656Z,938.6
2022-12-17T16:38:00.708Z,938.6
2022-12-17T16:48:41.514Z,938.6
2022-12-17T16:53:50.728Z,938.8
2022-12-17T17:04:26.121Z,938.8
2022-12-17T17:09:40.785Z,938.8
2022-12-17T17:14:54.605Z,938.7
2022-12-17T17:20:07.694Z,938.7
2022-12-17T17:25:22.226Z,938.7
2022-12-17T17:30:37.720Z,938.7
2022-12-17T17:35:48.625Z,938.8
2022-12-17T17:46:25.695Z,938.8
2022-12-17T17:52:12.744Z,938.8
2022-12-17T17:56:55.456Z,938.8
2022-12-17T18:02:11.727Z,938.9
2022-12-17T18:07:29.027Z,939.1
2022-12-17T18:12:34.805Z,939.1
2022-12-17T18:17:50.261Z,939.1
2022-12-17T18:28:24.592Z,939.3
2022-12-17T18:38:59.437Z,939.3
2022-12-17T18:44:13.756Z,939.3
2022-12-17T18:49:25.875Z,939.4
2022-12-17T19:00:04.511Z,939.4
2022-12-17T19:10:50.204Z,939.4
2022-12-17T19:15:53.739Z,939.5
2022-12-17T19:21:10.075Z,939.5
2022-12-17T19:26:22.897Z,939.5
2022-12-17T19:31:34.900Z,939.7
2022-12-17T19:42:20.018Z,939.7
2022-12-17T19:47:28.828Z,939.9
2022-12-17T19:52:44.691Z,939.9
2022-12-17T20:08:58.367Z,939.9
2022-12-17T20:19:33.454Z,939.8
2022-12-17T20:24:52.569Z,939.8
2022-12-17T20:30:10.148Z,939.8
2022-12-17T20:35:25.602Z,940
2022-12-17T20:40:37.777Z,940.1
2022-12-17T20:51:09.568Z,939.8
2022-12-17T21:01:42.431Z,940
2022-12-17T21:12:22.192Z,940.1
2022-12-17T21:17:45.335Z,940.1
2022-12-17T21:23:01.345Z,940.1
2022-12-17T21:28:14.950Z,940.1
2022-12-17T21:33:25.991Z,940.7
2022-12-17T21:38:42.429Z,940.7
2022-12-17T21:43:52.253Z,940.8
2022-12-17T21:49:10.198Z,940.8
2022-12-17T21:54:23.090Z,940.5
2022-12-17T22:10:53.011Z,940.7
2022-12-17T22:15:49.075Z,940.8
2022-12-17T22:26:08.312Z,940.8
2022-12-17T22:31:18.320Z,940.3
2022-12-17T22:45:02.169Z,940.3
2022-12-17T22:45:09.557Z,940.6
2022-12-17T22:52:20.996Z,940.6
2022-12-17T22:57:39.169Z,940.8
2022-12-17T23:02:39.172Z,940.9
2022-12-17T23:07:49.982Z,941
2022-12-17T23:13:04.230Z,941
2022-12-17T23:18:46.548Z,941.4
2022-12-17T23:24:01.443Z,941.6
2022-12-17T23:30:36.905Z,942.3
2022-12-17T23:35:44.797Z,942.3
2022-12-17T23:41:00.390Z,942.2
2022-12-17T23:48:08.929Z,942.2
2022-12-17T23:53:26.574Z,942.5
2022-12-17T23:59:56.326Z,942.7
